This is the latest recevied weather packets stored in our database for station/object SQ8NA-15. If no packets are shown the sender has not sent any weather packets the latest 10 day(s).
| Time | Temp. | Humidity | Pressure | Rain* | Wind** | Luminosity | Snow |
|---|---|---|---|---|---|---|---|
| 1787840781 | 22.78° C | 45% | 984.3 hPa | 0 mm | - | 314 W/m² | - |
| 1787840180 | 22.78° C | 45% | 984.4 hPa | 0 mm | - | 346 W/m² | - |
| 1787839567 | 22.22° C | 43% | 984.4 hPa | 0 mm | - | 373 W/m² | - |
| 1787838341 | 22.78° C | 47% | 984.4 hPa | 0 mm | - | 400 W/m² | - |
| 1787837730 | 22.78° C | 47% | 984.3 hPa | 0 mm | - | 498 W/m² | - |
| 1787837117 | 22.78° C | 46% | 984.3 hPa | 0 mm | - | 480 W/m² | - |
| 1787835893 | 22.78° C | 45% | 984.4 hPa | 0 mm | - | 524 W/m² | - |
| 1787835293 | 22.22° C | 47% | 984.4 hPa | 0 mm | - | 535 W/m² | - |
| 1787834679 | 21.11° C | 49% | 984.5 hPa | 0 mm | - | 555 W/m² | - |
| 1787833468 | 22.22° C | 45% | 984.5 hPa | 0 mm | - | 610 W/m² | - |
| 1787832868 | 22.78° C | 45% | 984.6 hPa | 0 mm | - | 603 W/m² | - |
| 1787832244 | 22.78° C | 46% | 984.6 hPa | 0 mm | - | 658 W/m² | - |
| 1787831004 | 22.22° C | 47% | 984.7 hPa | 0 mm | - | 699 W/m² | - |
| 1787829779 | 22.22° C | 47% | 984.9 hPa | 0 mm | - | 703 W/m² | - |
| 1787828555 | 21.67° C | 46% | 985.1 hPa | 0 mm | - | 642 W/m² | - |
| 1787827941 | 21.67° C | 50% | 985 hPa | 0 mm | - | 744 W/m² | - |
| 1787826717 | 20.56° C | 54% | 985 hPa | 0 mm | - | 750 W/m² | - |
| 1787826104 | 21.67° C | 50% | 985.1 hPa | 0 mm | - | 709 W/m² | - |
| 1787825491 | 21.67° C | 52% | 985.1 hPa | 0 mm | - | 721 W/m² | - |
| 1787824278 | 21.11° C | 53% | 985.2 hPa | 0 mm | - | 702 W/m² | - |
| 1787823668 | 21.11° C | 55% | 985.1 hPa | 0 mm | - | 681 W/m² | - |
| 1787822442 | 20° C | 57% | 985.3 hPa | 0 mm | - | 659 W/m² | - |
| 1787821842 | 20° C | 57% | 985.3 hPa | 0 mm | - | 367 W/m² | - |
| 1787821229 | 20° C | 58% | 985.3 hPa | 0 mm | - | 617 W/m² | - |
| 1787819992 | 20° C | 58% | 985.2 hPa | 0 mm | - | 562 W/m² | - |
* Rain latest hour (hover to see other rain measurements)
** Current wind speed in m/s (hover to see current wind gust speed)